Sunne, Sweden

3:06 AM CET on December 26, 2014 (GMT +0100)
Landsbygden | Change Station
CLOSE
Current Station
Personal Weather Station
Location: Aplung, VäRMLANDS LäN
Elevation: 341 ft
Nearby Weather Stations

Elev 341 ft 59.72 °N, 13.11 °E | Updated 7 minutes ago

Clear
Clear
0.7 °F
Feels Like 1 °F
N
0.0
Wind Variable Wind from SSE
Gusts 0.0 mph

Today
High -- | Low -- °F
--% Chance of Precip.
Yesterday
High -- | Low -- °F
Precip. -- in
9:09 AM 3:06 PM
Waxing Crescent, 21% visible
Pressure 30.18 in
Visibility 6.2 miles
Clouds
Windchill 1 °F
Dew Point -8 °F
Humidity 65%
Rainfall 0.00 in
Snow Depth Not available.
UV Not available.
Pollen Not available.
Air Quality Not available.
Flu Activity Not available.
METAR ESOK 260150Z AUTO 00000KT 9999 NCD M15/M16 Q1022

More Conditions Fewer Conditions

Pressure 30.18 in
Visibility 6.2 miles
Clouds
Windchill 1 °F
Dew Point -8 °F
Humidity 65%
Rainfall 0.00 in
Snow Depth Not available.
UV Not available.
Pollen Not available.
Air Quality Not available.
Flu Activity Not available.
METAR ESOK 260150Z AUTO 00000KT 9999 NCD M15/M16 Q1022

More Conditions Fewer Conditions

10-Day Weather Forecast

Almanac

Astronomy

Dec. 26, 2014 Rise Set
Actual Time
Civil Twilight
Nautical Twilight
Astronomical Twilight
Moon
Length of Visible Light
Length of Day
Tomorrow will be .
, % of the Moon is Illuminated

Today's Extremes

Country Highs Country Lows

Community

WunderPhotos

Upload Photos

1,780,504 photos uploaded!

WunderBlogs® & News

Nearby

Air Quality

  Air Quality AQ Index Pollutant
Not available.

Snow Depth

Station Depth Elevation

Earthquake Activity

City Distance Mag. Time & Date
Minimum magnitude displayed is 2.5.

Coastal Water Temperatures

Place Temperature

Nearby Weather Stations